Ardmore, Pennsylvania
Current Conditions -  °F | °C
As of 1:15 PM on Thursday 18 Dec 2014 (Local Time) from KLOM Reporting Station
Overcast Overcast  
Wind Chill:   Ceiling: 4100
Heat Index:   Visibility: 10mi
Dew Point: -3°   Wind: 7mph
Humidity: 65%   Direction: 270°W
Pressure: 30.01"   Gusts: 16mph
Location:  40.01°N, 75.28°W
Report Text: KLOM 181815Z AUTO 27006G14KT 10SM OVC041 03/M03 A3001 RMK AO1
Loading
Personal Weather Stations






























Interactive Weather Map New forecast layout! Learn more

10-Day Weather Forecast

Advertisements
Track Severe Weather on mobile